sensor_id;sensor_type;location;lat;lon;timestamp;pressure;altitude;pressure_sealevel;temperature;humidity
71107;BME280;58763;47.982;11.516;2023-04-29T00:00:18;93911.06;;;9.10;100.00
71107;BME280;58763;47.982;11.516;2023-04-29T00:02:44;93910.81;;;9.07;100.00
71107;BME280;58763;47.982;11.516;2023-04-29T00:05:09;93913.50;;;9.07;100.00
71107;BME280;58763;47.982;11.516;2023-04-29T00:07:34;93911.31;;;9.09;100.00
71107;BME280;58763;47.982;11.516;2023-04-29T00:10:00;93912.59;;;9.16;100.00
71107;BME280;58763;47.982;11.516;2023-04-29T00:12:26;93914.19;;;9.17;100.00
71107;BME280;58763;47.982;11.516;2023-04-29T00:14:52;93903.13;;;9.24;100.00
71107;BME280;58763;47.982;11.516;2023-04-29T00:17:18;93897.13;;;9.27;100.00
71107;BME280;58763;47.982;11.516;2023-04-29T00:19:43;93903.34;;;9.27;100.00
71107;BME280;58763;47.982;11.516;2023-04-29T00:22:09;93905.75;;;9.29;100.00
71107;BME280;58763;47.982;11.516;2023-04-29T00:24:34;93912.41;;;9.36;100.00
71107;BME280;58763;47.982;11.516;2023-04-29T00:27:00;93903.59;;;9.31;100.00
71107;BME280;58763;47.982;11.516;2023-04-29T00:29:27;93903.63;;;9.26;100.00
71107;BME280;58763;47.982;11.516;2023-04-29T00:31:52;93909.41;;;9.14;100.00
71107;BME280;58763;47.982;11.516;2023-04-29T00:34:17;93901.88;;;9.11;100.00
71107;BME280;58763;47.982;11.516;2023-04-29T00:36:43;93902.16;;;9.10;100.00
71107;BME280;58763;47.982;11.516;2023-04-29T00:39:08;93902.19;;;9.04;100.00
71107;BME280;58763;47.982;11.516;2023-04-29T00:41:34;93889.78;;;9.03;100.00
71107;BME280;58763;47.982;11.516;2023-04-29T00:44:00;93892.72;;;9.07;100.00
71107;BME280;58763;47.982;11.516;2023-04-29T00:46:25;93893.25;;;9.09;100.00
71107;BME280;58763;47.982;11.516;2023-04-29T00:48:50;93901.06;;;9.11;100.00
71107;BME280;58763;47.982;11.516;2023-04-29T00:51:16;93898.94;;;9.08;100.00
71107;BME280;58763;47.982;11.516;2023-04-29T00:53:42;93900.56;;;9.03;100.00
71107;BME280;58763;47.982;11.516;2023-04-29T00:56:08;93890.38;;;9.00;100.00
71107;BME280;58763;47.982;11.516;2023-04-29T00:58:34;93896.25;;;9.08;100.00
71107;BME280;58763;47.982;11.516;2023-04-29T01:01:01;93895.94;;;9.09;100.00
71107;BME280;58763;47.982;11.516;2023-04-29T01:03:28;93898.13;;;9.07;100.00
71107;BME280;58763;47.982;11.516;2023-04-29T01:06:06;93889.75;;;9.09;100.00
71107;BME280;58763;47.982;11.516;2023-04-29T01:11:21;93891.91;;;9.07;100.00
71107;BME280;58763;47.982;11.516;2023-04-29T01:13:57;93894.59;;;9.12;100.00
71107;BME280;58763;47.982;11.516;2023-04-29T01:16:43;93888.03;;;9.18;100.00
71107;BME280;58763;47.982;11.516;2023-04-29T01:19:44;93895.28;;;9.22;100.00
71107;BME280;58763;47.982;11.516;2023-04-29T01:22:11;93894.44;;;9.27;100.00
71107;BME280;58763;47.982;11.516;2023-04-29T01:24:39;93893.25;;;9.38;100.00
71107;BME280;58763;47.982;11.516;2023-04-29T01:27:23;93899.91;;;9.45;100.00
71107;BME280;58763;47.982;11.516;2023-04-29T01:33:47;93892.44;;;9.37;100.00
71107;BME280;58763;47.982;11.516;2023-04-29T01:35:54;93892.66;;;9.41;100.00
71107;BME280;58763;47.982;11.516;2023-04-29T01:38:46;93892.44;;;9.37;100.00
71107;BME280;58763;47.982;11.516;2023-04-29T01:41:31;93891.63;;;9.37;99.69
71107;BME280;58763;47.982;11.516;2023-04-29T01:43:57;93904.09;;;9.33;99.70
71107;BME280;58763;47.982;11.516;2023-04-29T01:46:23;93893.47;;;9.41;99.96
71107;BME280;58763;47.982;11.516;2023-04-29T01:48:52;93893.78;;;9.40;99.64
71107;BME280;58763;47.982;11.516;2023-04-29T01:51:18;93900.47;;;9.47;100.00
71107;BME280;58763;47.982;11.516;2023-04-29T01:53:43;93898.50;;;9.53;100.00
71107;BME280;58763;47.982;11.516;2023-04-29T01:56:09;93896.91;;;9.52;100.00
71107;BME280;58763;47.982;11.516;2023-04-29T01:58:34;93890.34;;;9.58;99.55
71107;BME280;58763;47.982;11.516;2023-04-29T02:01:00;93887.56;;;9.68;99.12
71107;BME280;58763;47.982;11.516;2023-04-29T02:03:25;93889.13;;;9.69;98.71
71107;BME280;58763;47.982;11.516;2023-04-29T02:05:51;93886.19;;;9.70;98.63
71107;BME280;58763;47.982;11.516;2023-04-29T02:08:17;93896.06;;;9.80;98.47
71107;BME280;58763;47.982;11.516;2023-04-29T02:10:56;93887.16;;;9.80;98.88
71107;BME280;58763;47.982;11.516;2023-04-29T02:13:22;93887.41;;;9.78;98.83
71107;BME280;58763;47.982;11.516;2023-04-29T02:15:47;93890.56;;;9.85;98.69
71107;BME280;58763;47.982;11.516;2023-04-29T02:18:13;93884.56;;;9.93;98.77
71107;BME280;58763;47.982;11.516;2023-04-29T02:20:39;93883.97;;;9.96;98.08
71107;BME280;58763;47.982;11.516;2023-04-29T02:23:04;93882.38;;;9.95;97.65
71107;BME280;58763;47.982;11.516;2023-04-29T02:25:30;93882.16;;;9.92;98.04
71107;BME280;58763;47.982;11.516;2023-04-29T02:27:55;93883.84;;;9.83;99.14
71107;BME280;58763;47.982;11.516;2023-04-29T02:30:20;93882.47;;;9.85;99.16
71107;BME280;58763;47.982;11.516;2023-04-29T02:32:46;93884.72;;;9.78;98.96
71107;BME280;58763;47.982;11.516;2023-04-29T02:35:11;93887.41;;;9.78;99.57
71107;BME280;58763;47.982;11.516;2023-04-29T02:37:37;93889.34;;;9.78;99.52
71107;BME280;58763;47.982;11.516;2023-04-29T02:40:03;93891.44;;;9.81;99.29
71107;BME280;58763;47.982;11.516;2023-04-29T02:42:29;93889.34;;;9.78;99.15
71107;BME280;58763;47.982;11.516;2023-04-29T02:44:54;93883.69;;;9.74;99.98
71107;BME280;58763;47.982;11.516;2023-04-29T02:47:20;93891.75;;;9.79;100.00
71107;BME280;58763;47.982;11.516;2023-04-29T02:49:45;93892.31;;;9.76;99.97
71107;BME280;58763;47.982;11.516;2023-04-29T02:52:11;93886.84;;;9.81;99.96
71107;BME280;58763;47.982;11.516;2023-04-29T02:54:37;93891.22;;;9.77;99.36
71107;BME280;58763;47.982;11.516;2023-04-29T02:57:02;93893.91;;;9.77;99.31
71107;BME280;58763;47.982;11.516;2023-04-29T02:59:28;93882.97;;;9.87;98.90
71107;BME280;58763;47.982;11.516;2023-04-29T03:01:53;93889.91;;;9.74;98.96
71107;BME280;58763;47.982;11.516;2023-04-29T03:04:19;93893.16;;;9.71;99.40
71107;BME280;58763;47.982;11.516;2023-04-29T03:06:44;93901.63;;;9.65;99.61
71107;BME280;58763;47.982;11.516;2023-04-29T03:09:10;93886.78;;;9.62;100.00
71107;BME280;58763;47.982;11.516;2023-04-29T03:11:37;93895.75;;;9.58;100.00
71107;BME280;58763;47.982;11.516;2023-04-29T03:14:03;93900.38;;;9.52;100.00
71107;BME280;58763;47.982;11.516;2023-04-29T03:16:29;93905.00;;;9.52;100.00
71107;BME280;58763;47.982;11.516;2023-04-29T03:18:54;93890.41;;;9.53;100.00
71107;BME280;58763;47.982;11.516;2023-04-29T03:21:19;93887.69;;;9.53;100.00
71107;BME280;58763;47.982;11.516;2023-04-29T03:23:45;93891.97;;;9.59;100.00
71107;BME280;58763;47.982;11.516;2023-04-29T03:26:11;93894.38;;;9.60;100.00
71107;BME280;58763;47.982;11.516;2023-04-29T03:28:36;93895.13;;;9.66;100.00
71107;BME280;58763;47.982;11.516;2023-04-29T03:31:01;93890.75;;;9.70;100.00
71107;BME280;58763;47.982;11.516;2023-04-29T03:33:27;93885.41;;;9.65;100.00
71107;BME280;58763;47.982;11.516;2023-04-29T03:35:52;93886.75;;;9.67;100.00
71107;BME280;58763;47.982;11.516;2023-04-29T03:38:18;93898.50;;;9.77;100.00
71107;BME280;58763;47.982;11.516;2023-04-29T03:40:44;93892.19;;;9.86;100.00
71107;BME280;58763;47.982;11.516;2023-04-29T03:43:10;93891.03;;;9.92;100.00
71107;BME280;58763;47.982;11.516;2023-04-29T03:45:36;93901.31;;;9.90;100.00
71107;BME280;58763;47.982;11.516;2023-04-29T03:48:01;93885.06;;;9.95;100.00
71107;BME280;58763;47.982;11.516;2023-04-29T03:50:28;93884.72;;;10.02;100.00
71107;BME280;58763;47.982;11.516;2023-04-29T03:52:54;93895.25;;;10.03;100.00
71107;BME280;58763;47.982;11.516;2023-04-29T03:55:19;93891.91;;;10.11;100.00
71107;BME280;58763;47.982;11.516;2023-04-29T03:57:45;93885.16;;;10.09;100.00
71107;BME280;58763;47.982;11.516;2023-04-29T04:00:10;93893.00;;;10.10;100.00
71107;BME280;58763;47.982;11.516;2023-04-29T04:02:36;93888.13;;;10.12;99.98
71107;BME280;58763;47.982;11.516;2023-04-29T04:05:01;93887.78;;;10.19;99.76
71107;BME280;58763;47.982;11.516;2023-04-29T04:07:27;93890.78;;;10.17;99.70
71107;BME280;58763;47.982;11.516;2023-04-29T04:09:52;93897.78;;;10.18;99.63
71107;BME280;58763;47.982;11.516;2023-04-29T04:12:17;93897.56;;;10.15;99.53
71107;BME280;58763;47.982;11.516;2023-04-29T04:14:43;93897.19;;;10.21;99.95
71107;BME280;58763;47.982;11.516;2023-04-29T04:17:08;93896.75;;;10.14;99.56
71107;BME280;58763;47.982;11.516;2023-04-29T04:19:34;93905.56;;;10.20;99.61
71107;BME280;58763;47.982;11.516;2023-04-29T04:22:02;93910.97;;;10.20;99.46
71107;BME280;58763;47.982;11.516;2023-04-29T04:24:27;93913.16;;;10.18;99.10
71107;BME280;58763;47.982;11.516;2023-04-29T04:26:53;93908.38;;;10.15;99.00
71107;BME280;58763;47.982;11.516;2023-04-29T04:29:18;93914.28;;;10.17;99.32
71107;BME280;58763;47.982;11.516;2023-04-29T04:31:44;93916.50;;;10.10;99.43
71107;BME280;58763;47.982;11.516;2023-04-29T04:34:09;93912.16;;;10.14;99.25
71107;BME280;58763;47.982;11.516;2023-04-29T04:36:34;93915.66;;;10.14;99.12
71107;BME280;58763;47.982;11.516;2023-04-29T04:39:00;93915.81;;;10.23;99.49
71107;BME280;58763;47.982;11.516;2023-04-29T04:41:25;93918.47;;;10.28;99.57
71107;BME280;58763;47.982;11.516;2023-04-29T04:43:51;93920.94;;;10.24;99.85
71107;BME280;58763;47.982;11.516;2023-04-29T04:46:16;93917.13;;;10.25;100.00
71107;BME280;58763;47.982;11.516;2023-04-29T04:48:42;93917.19;;;10.20;100.00
71107;BME280;58763;47.982;11.516;2023-04-29T04:51:12;93917.44;;;10.24;100.00
71107;BME280;58763;47.982;11.516;2023-04-29T04:53:39;93920.66;;;10.26;100.00
71107;BME280;58763;47.982;11.516;2023-04-29T04:56:05;93916.56;;;10.28;100.00
71107;BME280;58763;47.982;11.516;2023-04-29T04:58:32;93920.00;;;10.34;100.00
71107;BME280;58763;47.982;11.516;2023-04-29T05:00:58;93919.66;;;10.40;100.00
71107;BME280;58763;47.982;11.516;2023-04-29T05:03:24;93914.97;;;10.46;100.00
71107;BME280;58763;47.982;11.516;2023-04-29T05:05:56;93922.00;;;10.47;100.00
71107;BME280;58763;47.982;11.516;2023-04-29T05:08:22;93921.94;;;10.52;100.00
71107;BME280;58763;47.982;11.516;2023-04-29T05:10:48;93921.69;;;10.49;100.00
71107;BME280;58763;47.982;11.516;2023-04-29T05:13:13;93924.84;;;10.56;100.00
71107;BME280;58763;47.982;11.516;2023-04-29T05:15:38;93924.03;;;10.55;100.00
71107;BME280;58763;47.982;11.516;2023-04-29T05:18:04;93927.25;;;10.57;100.00
71107;BME280;58763;47.982;11.516;2023-04-29T05:20:29;93917.47;;;10.61;100.00
71107;BME280;58763;47.982;11.516;2023-04-29T05:22:55;93923.03;;;10.70;100.00
71107;BME280;58763;47.982;11.516;2023-04-29T05:25:20;93919.25;;;10.71;100.00
71107;BME280;58763;47.982;11.516;2023-04-29T05:27:46;93934.22;;;10.82;100.00
71107;BME280;58763;47.982;11.516;2023-04-29T05:30:11;93942.03;;;10.83;99.88
71107;BME280;58763;47.982;11.516;2023-04-29T05:32:37;93941.44;;;10.86;100.00
71107;BME280;58763;47.982;11.516;2023-04-29T05:35:02;93944.59;;;10.93;99.38
71107;BME280;58763;47.982;11.516;2023-04-29T05:37:28;93941.38;;;10.91;99.66
71107;BME280;58763;47.982;11.516;2023-04-29T05:39:56;93942.09;;;10.97;99.52
71107;BME280;58763;47.982;11.516;2023-04-29T05:42:22;93946.34;;;11.03;99.68
71107;BME280;58763;47.982;11.516;2023-04-29T05:44:48;93948.16;;;11.07;99.31
71107;BME280;58763;47.982;11.516;2023-04-29T05:47:14;93949.19;;;11.11;98.73
71107;BME280;58763;47.982;11.516;2023-04-29T05:49:39;93956.91;;;11.18;98.83
71107;BME280;58763;47.982;11.516;2023-04-29T05:52:04;93959.63;;;11.18;98.61
71107;BME280;58763;47.982;11.516;2023-04-29T05:54:33;93954.88;;;11.29;99.38
71107;BME280;58763;47.982;11.516;2023-04-29T05:57:00;93958.72;;;11.41;98.84
71107;BME280;58763;47.982;11.516;2023-04-29T05:59:29;93958.84;;;11.50;98.77
71107;BME280;58763;47.982;11.516;2023-04-29T06:01:56;93972.00;;;11.56;98.85
71107;BME280;58763;47.982;11.516;2023-04-29T06:04:22;93957.00;;;11.64;98.15
71107;BME280;58763;47.982;11.516;2023-04-29T06:06:47;93958.59;;;11.65;97.71
71107;BME280;58763;47.982;11.516;2023-04-29T06:09:13;93962.91;;;11.66;97.75
71107;BME280;58763;47.982;11.516;2023-04-29T06:11:42;93965.84;;;11.69;97.70
71107;BME280;58763;47.982;11.516;2023-04-29T06:14:09;93970.50;;;11.83;97.44
71107;BME280;58763;47.982;11.516;2023-04-29T06:16:34;93976.34;;;11.90;97.48
71107;BME280;58763;47.982;11.516;2023-04-29T06:19:00;93982.75;;;11.94;98.14
71107;BME280;58763;47.982;11.516;2023-04-29T06:21:26;93984.56;;;11.98;99.56
71107;BME280;58763;47.982;11.516;2023-04-29T06:23:55;93987.22;;;12.17;98.65
71107;BME280;58763;47.982;11.516;2023-04-29T06:26:20;93992.31;;;12.18;98.09
71107;BME280;58763;47.982;11.516;2023-04-29T06:28:46;93997.16;;;12.21;98.26
71107;BME280;58763;47.982;11.516;2023-04-29T06:31:11;94004.59;;;12.16;98.40
71107;BME280;58763;47.982;11.516;2023-04-29T06:33:37;93995.53;;;12.07;98.21
71107;BME280;58763;47.982;11.516;2023-04-29T06:36:03;94001.66;;;11.99;99.51
71107;BME280;58763;47.982;11.516;2023-04-29T06:38:29;93998.44;;;12.10;99.04
71107;BME280;58763;47.982;11.516;2023-04-29T06:40:54;94002.38;;;12.18;99.35
71107;BME280;58763;47.982;11.516;2023-04-29T06:43:21;93992.31;;;12.18;99.67
71107;BME280;58763;47.982;11.516;2023-04-29T06:45:47;94001.06;;;12.15;99.56
71107;BME280;58763;47.982;11.516;2023-04-29T06:48:12;93999.34;;;12.06;100.00
71107;BME280;58763;47.982;11.516;2023-04-29T06:50:38;94004.56;;;12.02;100.00
71107;BME280;58763;47.982;11.516;2023-04-29T06:53:03;94002.47;;;11.99;100.00
71107;BME280;58763;47.982;11.516;2023-04-29T06:55:29;93996.22;;;11.99;100.00
71107;BME280;58763;47.982;11.516;2023-04-29T06:57:54;93995.75;;;12.10;100.00
71107;BME280;58763;47.982;11.516;2023-04-29T07:00:19;94003.47;;;12.17;100.00
71107;BME280;58763;47.982;11.516;2023-04-29T07:02:46;94003.28;;;12.13;99.33
71107;BME280;58763;47.982;11.516;2023-04-29T07:05:12;93998.88;;;12.31;100.00
71107;BME280;58763;47.982;11.516;2023-04-29T07:07:38;94008.72;;;12.40;98.87
71107;BME280;58763;47.982;11.516;2023-04-29T07:10:04;94002.31;;;12.50;99.11
71107;BME280;58763;47.982;11.516;2023-04-29T07:12:29;93999.41;;;12.60;99.21
71107;BME280;58763;47.982;11.516;2023-04-29T07:14:55;94010.84;;;12.71;97.13
71107;BME280;58763;47.982;11.516;2023-04-29T07:17:22;94013.31;;;12.67;95.86
71107;BME280;58763;47.982;11.516;2023-04-29T07:19:47;94011.22;;;12.78;94.08
71107;BME280;58763;47.982;11.516;2023-04-29T07:22:13;94004.19;;;12.77;92.55
71107;BME280;58763;47.982;11.516;2023-04-29T07:24:38;94002.97;;;12.96;93.28
71107;BME280;58763;47.982;11.516;2023-04-29T07:27:03;93995.72;;;13.05;92.54
71107;BME280;58763;47.982;11.516;2023-04-29T07:29:29;93992.25;;;13.27;91.36
71107;BME280;58763;47.982;11.516;2023-04-29T07:31:55;93997.31;;;13.56;90.12
71107;BME280;58763;47.982;11.516;2023-04-29T07:34:20;94001.97;;;13.42;89.68
71107;BME280;58763;47.982;11.516;2023-04-29T07:36:45;94002.97;;;13.46;89.11
71107;BME280;58763;47.982;11.516;2023-04-29T07:39:11;94003.63;;;13.51;88.28
71107;BME280;58763;47.982;11.516;2023-04-29T07:41:39;94016.50;;;13.59;88.24
71107;BME280;58763;47.982;11.516;2023-04-29T07:44:04;94007.84;;;13.57;85.06
71107;BME280;58763;47.982;11.516;2023-04-29T07:46:30;94013.53;;;13.69;86.31
71107;BME280;58763;47.982;11.516;2023-04-29T07:48:55;94015.25;;;13.88;86.57
71107;BME280;58763;47.982;11.516;2023-04-29T07:51:22;94012.78;;;14.00;85.49
71107;BME280;58763;47.982;11.516;2023-04-29T07:53:47;94015.59;;;14.17;83.92
71107;BME280;58763;47.982;11.516;2023-04-29T07:56:13;94017.66;;;14.11;83.46
71107;BME280;58763;47.982;11.516;2023-04-29T07:58:38;94019.53;;;14.02;83.26
71107;BME280;58763;47.982;11.516;2023-04-29T08:01:05;94020.09;;;13.91;82.64
71107;BME280;58763;47.982;11.516;2023-04-29T08:03:31;94018.47;;;13.90;84.09
71107;BME280;58763;47.982;11.516;2023-04-29T08:06:00;94015.13;;;13.93;85.12
71107;BME280;58763;47.982;11.516;2023-04-29T08:08:26;94012.69;;;14.13;85.44
71107;BME280;58763;47.982;11.516;2023-04-29T08:10:51;94013.06;;;14.20;83.00
71107;BME280;58763;47.982;11.516;2023-04-29T08:13:17;94014.28;;;14.14;82.63
71107;BME280;58763;47.982;11.516;2023-04-29T08:15:42;94008.25;;;14.39;83.40
71107;BME280;58763;47.982;11.516;2023-04-29T08:18:07;94001.41;;;14.50;82.28
71107;BME280;58763;47.982;11.516;2023-04-29T08:20:33;94010.25;;;14.65;81.21
71107;BME280;58763;47.982;11.516;2023-04-29T08:22:58;94004.69;;;14.70;77.71
71107;BME280;58763;47.982;11.516;2023-04-29T08:25:25;94003.09;;;14.77;80.33
71107;BME280;58763;47.982;11.516;2023-04-29T08:27:51;94000.13;;;15.04;77.33
71107;BME280;58763;47.982;11.516;2023-04-29T08:30:17;94000.31;;;15.16;78.84
71107;BME280;58763;47.982;11.516;2023-04-29T08:32:42;93994.22;;;15.11;78.56
71107;BME280;58763;47.982;11.516;2023-04-29T08:35:08;93998.06;;;15.27;76.31
71107;BME280;58763;47.982;11.516;2023-04-29T08:37:33;94005.59;;;15.13;73.52
71107;BME280;58763;47.982;11.516;2023-04-29T08:39:59;94001.59;;;15.19;76.86
71107;BME280;58763;47.982;11.516;2023-04-29T08:42:32;94005.44;;;15.18;77.49
71107;BME280;58763;47.982;11.516;2023-04-29T08:44:58;94010.91;;;15.35;77.90
71107;BME280;58763;47.982;11.516;2023-04-29T08:47:25;94006.44;;;15.39;77.75
71107;BME280;58763;47.982;11.516;2023-04-29T08:49:52;94005.44;;;15.27;75.37
71107;BME280;58763;47.982;11.516;2023-04-29T08:52:18;94008.09;;;14.84;75.33
71107;BME280;58763;47.982;11.516;2023-04-29T08:54:43;94005.19;;;14.80;74.13
71107;BME280;58763;47.982;11.516;2023-04-29T08:57:10;94010.81;;;14.84;74.87
71107;BME280;58763;47.982;11.516;2023-04-29T08:59:36;94011.44;;;14.89;76.09
71107;BME280;58763;47.982;11.516;2023-04-29T09:02:04;94017.09;;;15.01;76.44
71107;BME280;58763;47.982;11.516;2023-04-29T09:04:48;94013.94;;;15.34;79.33
71107;BME280;58763;47.982;11.516;2023-04-29T09:07:17;94009.81;;;15.62;73.98
71107;BME280;58763;47.982;11.516;2023-04-29T09:09:42;94009.34;;;15.68;71.42
71107;BME280;58763;47.982;11.516;2023-04-29T09:12:08;94012.06;;;15.85;71.46
71107;BME280;58763;47.982;11.516;2023-04-29T09:14:35;94006.47;;;15.82;70.33
71107;BME280;58763;47.982;11.516;2023-04-29T09:17:01;94009.03;;;15.96;70.24
71107;BME280;58763;47.982;11.516;2023-04-29T09:19:31;93996.03;;;15.84;71.32
71107;BME280;58763;47.982;11.516;2023-04-29T09:21:57;94000.69;;;16.01;70.83
71107;BME280;58763;47.982;11.516;2023-04-29T09:24:27;93998.88;;;16.13;69.69
71107;BME280;58763;47.982;11.516;2023-04-29T09:26:53;93993.84;;;16.32;70.68
71107;BME280;58763;47.982;11.516;2023-04-29T09:29:19;93991.28;;;16.36;70.98
71107;BME280;58763;47.982;11.516;2023-04-29T09:31:46;93999.13;;;16.37;68.90
71107;BME280;58763;47.982;11.516;2023-04-29T09:34:11;93994.91;;;16.48;69.44
71107;BME280;58763;47.982;11.516;2023-04-29T09:36:42;94001.69;;;16.51;69.79
71107;BME280;58763;47.982;11.516;2023-04-29T09:39:22;94006.78;;;15.98;68.74
71107;BME280;58763;47.982;11.516;2023-04-29T09:44:17;94014.22;;;15.06;72.73
71107;BME280;58763;47.982;11.516;2023-04-29T09:46:43;94010.16;;;14.78;72.08
71107;BME280;58763;47.982;11.516;2023-04-29T09:49:22;94013.25;;;14.54;73.33
71107;BME280;58763;47.982;11.516;2023-04-29T09:51:56;94010.41;;;14.60;75.48
71107;BME280;58763;47.982;11.516;2023-04-29T09:54:23;94016.84;;;14.72;75.63
71107;BME280;58763;47.982;11.516;2023-04-29T09:56:50;94018.94;;;14.75;74.35
71107;BME280;58763;47.982;11.516;2023-04-29T09:59:17;94012.59;;;15.05;75.43
71107;BME280;58763;47.982;11.516;2023-04-29T10:01:46;94001.34;;;15.46;76.88
71107;BME280;58763;47.982;11.516;2023-04-29T10:04:14;94005.66;;;15.90;75.42
71107;BME280;58763;47.982;11.516;2023-04-29T10:06:40;94014.47;;;15.96;68.87
71107;BME280;58763;47.982;11.516;2023-04-29T10:09:07;94005.41;;;16.29;73.46
71107;BME280;58763;47.982;11.516;2023-04-29T10:11:35;94015.81;;;16.62;67.46
71107;BME280;58763;47.982;11.516;2023-04-29T10:14:03;94006.91;;;16.73;68.73
71107;BME280;58763;47.982;11.516;2023-04-29T10:16:33;94014.31;;;16.64;70.10
71107;BME280;58763;47.982;11.516;2023-04-29T10:19:03;93998.78;;;16.47;69.71
71107;BME280;58763;47.982;11.516;2023-04-29T10:21:31;94001.44;;;16.18;70.29
71107;BME280;58763;47.982;11.516;2023-04-29T10:23:58;94001.59;;;16.13;64.77
71107;BME280;58763;47.982;11.516;2023-04-29T10:26:28;93995.81;;;16.23;63.48
71107;BME280;58763;47.982;11.516;2023-04-29T10:28:58;93992.88;;;16.37;64.69
71107;BME280;58763;47.982;11.516;2023-04-29T10:31:25;93989.81;;;16.47;63.44
71107;BME280;58763;47.982;11.516;2023-04-29T10:33:54;93985.06;;;16.73;63.81
71107;BME280;58763;47.982;11.516;2023-04-29T10:36:20;93986.63;;;17.12;66.47
71107;BME280;58763;47.982;11.516;2023-04-29T10:38:53;93984.00;;;17.15;61.78
71107;BME280;58763;47.982;11.516;2023-04-29T10:41:22;93981.47;;;17.40;63.37
71107;BME280;58763;47.982;11.516;2023-04-29T10:43:53;93971.63;;;17.68;62.72
71107;BME280;58763;47.982;11.516;2023-04-29T10:46:21;93972.41;;;17.89;60.62
71107;BME280;58763;47.982;11.516;2023-04-29T10:48:50;93958.59;;;18.18;60.82
71107;BME280;58763;47.982;11.516;2023-04-29T10:51:33;93966.56;;;18.23;57.33
71107;BME280;58763;47.982;11.516;2023-04-29T10:54:01;93968.09;;;18.00;56.97
71107;BME280;58763;47.982;11.516;2023-04-29T10:56:38;93965.69;;;17.66;60.93
71107;BME280;58763;47.982;11.516;2023-04-29T10:59:03;93972.53;;;17.72;60.03
71107;BME280;58763;47.982;11.516;2023-04-29T11:04:14;93963.75;;;17.66;59.94
71107;BME280;58763;47.982;11.516;2023-04-29T11:06:42;93965.34;;;17.67;60.19
71107;BME280;58763;47.982;11.516;2023-04-29T11:09:13;93970.63;;;17.22;61.03
71107;BME280;58763;47.982;11.516;2023-04-29T11:16:57;93976.91;;;17.23;62.23
71107;BME280;58763;47.982;11.516;2023-04-29T11:19:31;93972.44;;;17.39;61.28
71107;BME280;58763;47.982;11.516;2023-04-29T11:24:56;93959.84;;;17.88;63.57
71107;BME280;58763;47.982;11.516;2023-04-29T11:27:24;93971.03;;;17.95;59.91
71107;BME280;58763;47.982;11.516;2023-04-29T11:29:52;93975.00;;;18.18;57.92
71107;BME280;58763;47.982;11.516;2023-04-29T11:32:23;93976.31;;;18.33;56.77
71107;BME280;58763;47.982;11.516;2023-04-29T11:34:50;93979.94;;;18.25;58.41
71107;BME280;58763;47.982;11.516;2023-04-29T11:37:24;93978.25;;;18.00;59.62
71107;BME280;58763;47.982;11.516;2023-04-29T11:39:50;93982.00;;;17.95;61.65
71107;BME280;58763;47.982;11.516;2023-04-29T11:42:22;93988.53;;;18.03;61.10
71107;BME280;58763;47.982;11.516;2023-04-29T11:44:51;93991.16;;;18.11;62.45
71107;BME280;58763;47.982;11.516;2023-04-29T11:47:17;93987.56;;;18.19;63.38
71107;BME280;58763;47.982;11.516;2023-04-29T11:49:43;93987.81;;;18.26;61.76
71107;BME280;58763;47.982;11.516;2023-04-29T11:52:08;93981.50;;;18.46;63.94
71107;BME280;58763;47.982;11.516;2023-04-29T11:54:34;93984.63;;;18.69;61.66
71107;BME280;58763;47.982;11.516;2023-04-29T11:56:59;93981.34;;;18.88;60.90
71107;BME280;58763;47.982;11.516;2023-04-29T11:59:30;93969.22;;;19.01;57.92
71107;BME280;58763;47.982;11.516;2023-04-29T12:01:57;93978.00;;;19.18;58.67
71107;BME280;58763;47.982;11.516;2023-04-29T12:04:22;93975.28;;;19.06;57.37
71107;BME280;58763;47.982;11.516;2023-04-29T12:06:50;93988.63;;;19.08;56.77
71107;BME280;58763;47.982;11.516;2023-04-29T12:09:17;93988.94;;;18.25;55.88
71107;BME280;58763;47.982;11.516;2023-04-29T12:11:43;93988.44;;;18.11;57.86
71107;BME280;58763;47.982;11.516;2023-04-29T12:14:11;93980.66;;;18.01;58.34
71107;BME280;58763;47.982;11.516;2023-04-29T12:16:37;93987.41;;;18.16;58.45
71107;BME280;58763;47.982;11.516;2023-04-29T12:19:03;93978.22;;;18.32;58.23
71107;BME280;58763;47.982;11.516;2023-04-29T12:21:29;93988.50;;;18.35;59.49
71107;BME280;58763;47.982;11.516;2023-04-29T12:23:58;93990.66;;;18.50;57.79
71107;BME280;58763;47.982;11.516;2023-04-29T12:26:26;93985.88;;;18.84;57.51
71107;BME280;58763;47.982;11.516;2023-04-29T12:28:56;93975.59;;;19.05;56.82
71107;BME280;58763;47.982;11.516;2023-04-29T12:31:23;93970.81;;;19.26;56.91
71107;BME280;58763;47.982;11.516;2023-04-29T12:33:52;93970.72;;;19.22;53.54
71107;BME280;58763;47.982;11.516;2023-04-29T12:36:18;93984.97;;;18.92;55.07
71107;BME280;58763;47.982;11.516;2023-04-29T12:38:44;93987.69;;;18.68;54.43
71107;BME280;58763;47.982;11.516;2023-04-29T12:41:11;93996.72;;;18.35;54.96
71107;BME280;58763;47.982;11.516;2023-04-29T12:43:38;93988.06;;;18.01;55.30
71107;BME280;58763;47.982;11.516;2023-04-29T12:48:31;93988.63;;;17.94;56.14
71107;BME280;58763;47.982;11.516;2023-04-29T12:50:56;94001.25;;;18.19;55.29
71107;BME280;58763;47.982;11.516;2023-04-29T12:53:24;93995.78;;;17.66;55.27
71107;BME280;58763;47.982;11.516;2023-04-29T12:55:50;93992.41;;;17.60;55.29
71107;BME280;58763;47.982;11.516;2023-04-29T12:58:16;93983.22;;;17.65;55.95
71107;BME280;58763;47.982;11.516;2023-04-29T13:00:41;93989.75;;;17.52;55.94
71107;BME280;58763;47.982;11.516;2023-04-29T13:03:07;93996.03;;;17.73;57.89
71107;BME280;58763;47.982;11.516;2023-04-29T13:05:32;93985.16;;;17.85;55.33
71107;BME280;58763;47.982;11.516;2023-04-29T13:07:58;93993.06;;;17.99;55.46
71107;BME280;58763;47.982;11.516;2023-04-29T13:10:23;93988.19;;;18.04;53.38